Aérodrome :
LOGIN :

S'inscrire | Disclaimer

   EN    FR    IT 

 










Légende :    VFR   VFR Marginal   IFR   IFR Intensif   IFR Très Intensif
Visi : 
Plafond : 
>= 8 km
>= 3000ft
5 à 8 km
1000 à 3000 ft
1500m à 5 km
500 à 1000 ft
800 à 1500m
200 à 500 ft
< 800m
< 200 ft
Symboles :   Orages  Brouillard  Fortes neiges  Fortes précipitations  Vent > 20 kt
SIGMETs :   Divers  Orages  Givrage  Turbulence  Onde Orograph.  Cendres Volcan.






- Altitude de l'aérodrome : 3 ft
- Code IATA : LWR


EHLW - Leuuwarden Air Base

DERNIER METAR :
  • 191825Z AUTO 32006KT 9999 SCT015 BKN019 BKN023 05/04 Q1044 WHT

METARs EXPIRÉS :
  • 191818Z AUTO 32006KT 9999 SCT017 04/03 Q1044 WHT
  • 191755Z AUTO 34006KT 300V360 9999 FEW018 OVC240 05/04 Q1043 BLU
  • 191732Z AUTO 33008KT 300V360 9999 FEW016 SCT024 BKN034 05/04 Q1043 WHT
  • 191729Z AUTO 33008KT 300V360 9999 FEW016 SCT025 BKN029 05/04 Q1043 BLU
  • 191655Z AUTO 34006KT 9999 FEW017 SCT022 BKN025 05/04 Q1043 WHT
  • 191625Z AUTO 33006KT 290V350 9999 BKN018 BKN021 05/04 Q1042 WHT
  • 191555Z AUTO 34008KT 9999 NCD 05/04 Q1042 BLU
  • 191542Z AUTO 33007KT 9999 FEW019 05/04 Q1042 BLU
  • 191535Z AUTO 34008KT 9999 FEW018 SCT022 06/04 Q1042 WHT

TAF TAF EHLW
Valide du 19 à 18h jusqu'au 20 à 06h UTC


191710Z 1918/2006 34005KT 9999 FEW018
BECMG 1921/1924 27004KT 4500 BR
PROB30
TEMPO 2001/2006 2000



MET'MAP, la Météo Aéronautique d'un coup d'oeil ! - Copyright ORBIFLY Décembre 2007 - Disclaimer

ORBIFLY MET'MAP TEAM :

Programmation & Développement : Alexandra Zaïnal
Sur une idée originale de : Baudouin d'Aumeries
Assistance à la programmation : Marc-Olivier Méhu
Soutien technique & logistique : Manuel Goepfert

Contact : metmap@orbifly.com




SOURCES & CREDITS :

   NOAA